createdAt,value
2023-02-14T00:00:03.522Z,7.80
2023-02-14T00:02:34.784Z,8.05
2023-02-14T00:05:01.291Z,8.18
2023-02-14T00:07:27.700Z,8.15
2023-02-14T00:09:54.076Z,7.97
2023-02-14T00:12:20.558Z,7.90
2023-02-14T00:14:46.950Z,8.73
2023-02-14T00:17:13.372Z,8.50
2023-02-14T00:19:39.917Z,7.32
2023-02-14T00:22:06.326Z,8.23
2023-02-14T00:24:32.718Z,7.72
2023-02-14T00:26:59.161Z,7.75
2023-02-14T00:29:25.545Z,8.07
2023-02-14T00:31:52.020Z,7.53
2023-02-14T00:34:18.497Z,8.52
2023-02-14T00:36:44.917Z,8.02
2023-02-14T00:39:11.393Z,8.00
2023-02-14T00:41:37.896Z,7.68
2023-02-14T00:44:04.373Z,7.65
2023-02-14T00:46:30.796Z,8.15
2023-02-14T00:48:57.247Z,8.25
2023-02-14T00:51:23.703Z,7.57
2023-02-14T00:53:50.105Z,8.13
2023-02-14T00:56:16.531Z,8.20
2023-02-14T00:58:42.979Z,7.88
2023-02-14T01:01:09.432Z,7.22
2023-02-14T01:03:35.915Z,7.38
2023-02-14T01:06:02.312Z,7.80
2023-02-14T01:08:29.580Z,7.70
2023-02-14T01:10:56.027Z,7.50
2023-02-14T01:13:22.422Z,7.57
2023-02-14T01:15:48.814Z,7.47
2023-02-14T01:18:15.263Z,7.55
2023-02-14T01:20:41.656Z,6.88
2023-02-14T01:23:08.092Z,7.40
2023-02-14T01:25:34.543Z,7.75
2023-02-14T01:28:00.937Z,7.65
2023-02-14T01:30:27.396Z,7.47
2023-02-14T01:32:53.896Z,7.80
2023-02-14T01:35:20.490Z,7.90
2023-02-14T01:37:46.920Z,8.25
2023-02-14T01:40:13.544Z,8.48
2023-02-14T01:42:42.606Z,8.95
2023-02-14T01:45:08.993Z,8.25
2023-02-14T01:47:35.443Z,9.10
2023-02-14T01:50:01.874Z,9.45
2023-02-14T01:52:28.301Z,8.93
2023-02-14T01:54:54.761Z,9.23
2023-02-14T01:57:21.205Z,9.07
2023-02-14T01:59:47.592Z,8.82
2023-02-14T02:02:14.100Z,8.23
2023-02-14T02:04:40.569Z,8.50
2023-02-14T02:07:06.972Z,8.05
2023-02-14T02:09:33.409Z,9.10
2023-02-14T02:11:59.799Z,8.18
2023-02-14T02:14:26.216Z,7.75
2023-02-14T02:16:52.761Z,7.82
2023-02-14T02:19:19.209Z,7.50
2023-02-14T02:21:45.619Z,7.32
2023-02-14T02:24:12.154Z,8.20
2023-02-14T02:26:38.559Z,7.55
2023-02-14T02:29:05.070Z,7.78
2023-02-14T02:31:31.694Z,8.35
2023-02-14T02:33:58.268Z,7.25
2023-02-14T02:36:24.730Z,7.15
2023-02-14T02:38:51.855Z,7.60
2023-02-14T02:41:18.645Z,7.45
2023-02-14T02:43:45.056Z,7.88
2023-02-14T02:46:11.546Z,7.55
2023-02-14T02:48:38.003Z,7.32
2023-02-14T02:51:06.018Z,7.50
2023-02-14T02:53:32.448Z,7.47
2023-02-14T02:55:58.986Z,7.50
2023-02-14T02:58:25.456Z,7.57
2023-02-14T03:00:51.924Z,6.97
2023-02-14T03:03:21.252Z,6.88
2023-02-14T03:05:47.658Z,6.00
2023-02-14T03:08:16.082Z,6.05
2023-02-14T03:10:42.474Z,5.80
2023-02-14T03:13:09.176Z,5.43
2023-02-14T03:15:35.708Z,5.15
2023-02-14T03:18:02.180Z,5.07
2023-02-14T03:20:28.641Z,5.13
2023-02-14T03:22:57.071Z,4.68
2023-02-14T03:25:23.498Z,4.57
2023-02-14T03:27:49.915Z,4.95
2023-02-14T03:30:16.398Z,4.20
2023-02-14T03:32:42.812Z,4.28
2023-02-14T03:35:09.640Z,4.45
2023-02-14T03:37:36.151Z,4.38
2023-02-14T03:40:03.292Z,4.32
2023-02-14T03:42:29.942Z,4.10
2023-02-14T03:44:56.556Z,4.18
2023-02-14T03:47:23.095Z,4.00
2023-02-14T03:49:49.586Z,4.00
2023-02-14T03:52:16.157Z,4.05
2023-02-14T03:54:42.553Z,3.58
2023-02-14T03:57:08.935Z,3.75
2023-02-14T03:59:35.386Z,4.20
2023-02-14T04:02:01.852Z,3.97
2023-02-14T04:04:28.315Z,3.63
2023-02-14T04:06:54.777Z,3.75
2023-02-14T04:09:21.164Z,4.10
2023-02-14T04:11:47.693Z,3.55
2023-02-14T04:14:14.214Z,4.00
2023-02-14T04:16:40.658Z,3.35
2023-02-14T04:19:07.071Z,3.83
2023-02-14T04:21:33.552Z,3.60
2023-02-14T04:24:00.008Z,3.30
2023-02-14T04:26:26.399Z,3.25
2023-02-14T04:28:52.861Z,3.50
2023-02-14T04:31:19.393Z,3.60
2023-02-14T04:33:45.909Z,3.28
2023-02-14T04:36:12.429Z,3.42
2023-02-14T04:38:38.881Z,3.33
2023-02-14T04:41:05.350Z,4.00
2023-02-14T04:43:31.806Z,4.45
2023-02-14T04:45:58.288Z,3.88
2023-02-14T04:48:24.775Z,3.97
2023-02-14T04:50:51.252Z,3.55
2023-02-14T04:53:17.721Z,3.33
2023-02-14T04:55:44.260Z,3.30
2023-02-14T04:58:10.719Z,3.70
2023-02-14T05:00:37.181Z,2.90
2023-02-14T05:03:03.673Z,3.10
2023-02-14T05:05:30.207Z,2.75
2023-02-14T05:07:56.709Z,3.70
2023-02-14T05:10:23.231Z,3.33
2023-02-14T05:12:49.808Z,2.83
2023-02-14T05:15:16.311Z,3.17
2023-02-14T05:17:42.784Z,2.88
2023-02-14T05:20:09.261Z,3.22
2023-02-14T05:22:35.729Z,2.65
2023-02-14T05:25:02.235Z,2.88
2023-02-14T05:27:28.933Z,3.10
2023-02-14T05:29:55.444Z,2.60
2023-02-14T05:32:21.989Z,2.90
2023-02-14T05:34:48.487Z,2.72
2023-02-14T05:37:14.934Z,2.47
2023-02-14T05:39:41.368Z,3.40
2023-02-14T05:42:12.249Z,3.15
2023-02-14T05:44:38.724Z,3.00
2023-02-14T05:47:05.157Z,3.00
2023-02-14T05:49:31.700Z,2.85
2023-02-14T05:51:58.171Z,3.10
2023-02-14T05:54:24.673Z,2.80
2023-02-14T05:56:51.179Z,2.95
2023-02-14T05:59:17.626Z,2.80
2023-02-14T06:01:44.115Z,3.00
2023-02-14T06:04:10.688Z,2.70
2023-02-14T06:06:37.163Z,2.95
2023-02-14T06:09:05.109Z,3.00
2023-02-14T06:11:31.669Z,3.30
2023-02-14T06:13:58.130Z,3.22
2023-02-14T06:16:24.636Z,2.90
2023-02-14T06:18:51.230Z,2.47
2023-02-14T06:21:17.697Z,3.20
2023-02-14T06:23:44.212Z,3.17
2023-02-14T06:26:10.741Z,3.33
2023-02-14T06:28:37.227Z,3.22
2023-02-14T06:31:04.114Z,3.55
2023-02-14T06:33:30.907Z,3.38
2023-02-14T06:35:57.380Z,3.60
2023-02-14T06:38:23.825Z,3.67
2023-02-14T06:40:50.405Z,3.45
2023-02-14T06:43:16.838Z,3.70
2023-02-14T06:45:43.308Z,3.60
2023-02-14T06:48:09.830Z,3.40
2023-02-14T06:50:36.289Z,3.00
2023-02-14T06:53:02.693Z,3.22
2023-02-14T06:55:29.159Z,3.20
2023-02-14T06:57:55.588Z,3.55
2023-02-14T07:00:22.035Z,3.17
2023-02-14T07:02:48.568Z,3.38
2023-02-14T07:05:15.084Z,3.08
2023-02-14T07:07:41.538Z,3.58
2023-02-14T07:10:08.030Z,2.92
2023-02-14T07:12:34.460Z,3.28
2023-02-14T07:15:00.883Z,5.70
2023-02-14T07:17:27.383Z,5.40
2023-02-14T07:19:53.858Z,4.60
2023-02-14T07:22:20.314Z,4.50
2023-02-14T07:24:46.808Z,4.47
2023-02-14T07:27:13.249Z,4.38
2023-02-14T07:29:39.678Z,4.00
2023-02-14T07:32:06.328Z,4.07
2023-02-14T07:34:32.827Z,3.83
2023-02-14T07:36:59.240Z,4.20
2023-02-14T07:39:25.730Z,4.07
2023-02-14T07:41:52.159Z,3.85
2023-02-14T07:44:19.314Z,4.22
2023-02-14T07:46:45.797Z,4.22
2023-02-14T07:49:12.228Z,4.38
2023-02-14T07:51:38.652Z,4.90
2023-02-14T07:54:05.129Z,4.88
2023-02-14T07:56:31.589Z,4.57
2023-02-14T07:58:58.060Z,4.65
2023-02-14T08:01:24.586Z,4.55
2023-02-14T08:03:51.012Z,4.28
2023-02-14T08:06:17.479Z,4.30
2023-02-14T08:08:43.971Z,4.28
2023-02-14T08:11:10.389Z,4.15
2023-02-14T08:13:36.852Z,3.47
2023-02-14T08:16:03.385Z,4.10
2023-02-14T08:18:29.852Z,10.05
2023-02-14T08:20:56.317Z,6.68
2023-02-14T08:23:22.807Z,5.97
2023-02-14T08:25:49.234Z,5.47
2023-02-14T08:28:15.658Z,4.55
2023-02-14T08:30:42.163Z,4.47
2023-02-14T08:33:08.600Z,4.60
2023-02-14T08:35:34.999Z,4.00
2023-02-14T08:38:01.499Z,3.80
2023-02-14T08:40:27.907Z,3.80
2023-02-14T08:42:54.320Z,4.00
2023-02-14T08:45:20.848Z,4.18
2023-02-14T08:47:47.248Z,3.70
2023-02-14T08:50:13.675Z,3.60
2023-02-14T08:52:40.171Z,3.50
2023-02-14T08:55:06.646Z,3.30
2023-02-14T08:57:33.178Z,3.22
2023-02-14T08:59:59.783Z,3.35
2023-02-14T09:02:26.251Z,3.10
2023-02-14T09:04:52.750Z,2.80
2023-02-14T09:07:19.237Z,3.28
2023-02-14T09:09:45.662Z,3.20
2023-02-14T09:12:12.235Z,3.17
2023-02-14T09:14:38.762Z,3.45
2023-02-14T09:17:05.239Z,3.50
2023-02-14T09:19:31.678Z,3.50
2023-02-14T09:21:58.149Z,3.90
2023-02-14T09:24:24.573Z,3.22
2023-02-14T09:26:51.013Z,3.80
2023-02-14T09:29:17.501Z,3.22
2023-02-14T09:31:44.008Z,3.72
2023-02-14T09:34:10.508Z,3.55
2023-02-14T09:36:36.989Z,3.33
2023-02-14T09:39:03.443Z,3.05
2023-02-14T09:41:29.854Z,3.40
2023-02-14T09:43:56.422Z,3.50
2023-02-14T09:46:22.927Z,3.15
2023-02-14T09:48:49.368Z,2.97
2023-02-14T09:51:15.878Z,3.30
2023-02-14T09:53:42.303Z,3.72
2023-02-14T09:56:08.748Z,3.38
2023-02-14T09:58:35.738Z,3.53
2023-02-14T10:01:02.506Z,3.40
2023-02-14T10:03:29.119Z,4.15
2023-02-14T10:05:55.763Z,4.13
2023-02-14T10:08:22.188Z,4.00
2023-02-14T10:10:48.616Z,3.67
2023-02-14T10:13:15.143Z,3.80
2023-02-14T10:15:41.622Z,3.55
2023-02-14T10:18:08.088Z,3.88
2023-02-14T10:20:34.569Z,3.50
2023-02-14T10:23:01.187Z,3.70
2023-02-14T10:25:27.664Z,3.38
2023-02-14T10:27:54.165Z,3.42
2023-02-14T10:30:20.685Z,3.30
2023-02-14T10:32:47.132Z,3.72
2023-02-14T10:35:13.605Z,3.80
2023-02-14T10:37:40.098Z,3.58
2023-02-14T10:40:06.512Z,4.07
2023-02-14T10:42:33.000Z,3.72
2023-02-14T10:44:59.458Z,3.80
2023-02-14T10:47:25.916Z,3.63
2023-02-14T10:49:52.417Z,3.55
2023-02-14T10:52:18.868Z,3.33
2023-02-14T10:54:45.274Z,4.15
2023-02-14T10:57:11.769Z,3.90
2023-02-14T10:59:38.174Z,4.00
2023-02-14T11:02:04.572Z,3.75
2023-02-14T11:04:31.146Z,4.35
2023-02-14T11:06:57.551Z,4.68
2023-02-14T11:09:23.987Z,4.43
2023-02-14T11:11:50.467Z,4.72
2023-02-14T11:14:17.427Z,4.88
2023-02-14T11:16:44.674Z,5.30
2023-02-14T11:19:11.181Z,5.30
2023-02-14T11:21:37.612Z,13.30
2023-02-14T11:24:04.038Z,22.60
2023-02-14T11:26:30.498Z,13.23
2023-02-14T11:28:57.008Z,11.75
2023-02-14T11:31:23.528Z,11.23
2023-02-14T11:33:50.038Z,10.88
2023-02-14T11:36:16.474Z,11.52
2023-02-14T11:38:42.943Z,10.95
2023-02-14T11:41:09.419Z,10.20
2023-02-14T11:43:35.851Z,8.95
2023-02-14T11:46:02.324Z,8.90
2023-02-14T11:48:38.333Z,8.68
2023-02-14T11:51:05.513Z,8.70
2023-02-14T11:53:31.999Z,8.73
2023-02-14T11:55:58.442Z,8.38
2023-02-14T11:58:24.893Z,7.88
2023-02-14T12:00:51.390Z,7.72
2023-02-14T12:03:17.845Z,7.57
2023-02-14T12:05:44.298Z,7.38
2023-02-14T12:08:10.794Z,7.20
2023-02-14T12:10:37.255Z,6.95
2023-02-14T12:13:03.700Z,6.65
2023-02-14T12:15:30.253Z,6.60
2023-02-14T12:17:56.698Z,6.57
2023-02-14T12:20:23.141Z,6.30
2023-02-14T12:22:49.621Z,6.60
2023-02-14T12:25:16.029Z,6.75
2023-02-14T12:27:42.457Z,6.55
2023-02-14T12:30:08.971Z,6.50
2023-02-14T12:32:35.426Z,6.30
2023-02-14T12:35:01.855Z,6.07
2023-02-14T12:37:28.352Z,6.60
2023-02-14T12:39:54.780Z,6.78
2023-02-14T12:42:21.187Z,5.80
2023-02-14T12:44:47.687Z,6.38
2023-02-14T12:47:14.130Z,6.30
2023-02-14T12:49:40.560Z,6.30
2023-02-14T12:52:07.050Z,6.28
2023-02-14T12:54:33.494Z,6.15
2023-02-14T12:56:59.941Z,5.90
2023-02-14T12:59:26.439Z,5.90
2023-02-14T13:01:52.900Z,5.75
2023-02-14T13:04:19.360Z,5.47
2023-02-14T13:06:46.128Z,5.85
2023-02-14T13:09:12.580Z,5.63
2023-02-14T13:11:38.993Z,5.65
2023-02-14T13:14:05.525Z,5.60
2023-02-14T13:16:31.993Z,5.95
2023-02-14T13:18:58.436Z,5.68
2023-02-14T13:21:24.931Z,5.75
2023-02-14T13:23:51.422Z,5.60
2023-02-14T13:26:17.858Z,5.55
2023-02-14T13:28:44.338Z,5.35
2023-02-14T13:31:10.851Z,5.60
2023-02-14T13:33:37.342Z,6.30
2023-02-14T13:36:03.831Z,5.75
2023-02-14T13:38:30.460Z,5.25
2023-02-14T13:40:56.930Z,5.10
2023-02-14T13:43:23.416Z,5.45
2023-02-14T13:45:49.818Z,5.53
2023-02-14T13:48:16.225Z,4.63
2023-02-14T13:50:42.671Z,5.13
2023-02-14T13:53:09.284Z,4.82
2023-02-14T13:55:35.683Z,5.15
2023-02-14T13:58:02.211Z,5.20
2023-02-14T14:00:28.650Z,5.20
2023-02-14T14:02:55.103Z,5.20
2023-02-14T14:05:21.569Z,4.85
2023-02-14T14:07:47.962Z,5.38
2023-02-14T14:10:14.372Z,4.60
2023-02-14T14:12:40.926Z,4.80
2023-02-14T14:15:07.327Z,5.25
2023-02-14T14:17:33.866Z,5.70
2023-02-14T14:20:00.352Z,5.30
2023-02-14T14:22:26.781Z,5.13
2023-02-14T14:24:53.198Z,5.35
2023-02-14T14:27:19.710Z,5.47
2023-02-14T14:29:46.127Z,5.53
2023-02-14T14:32:12.923Z,5.05
2023-02-14T14:34:39.527Z,5.53
2023-02-14T14:37:06.013Z,5.32
2023-02-14T14:39:32.537Z,5.28
2023-02-14T14:41:59.011Z,5.15
2023-02-14T14:44:25.480Z,5.32
2023-02-14T14:46:51.904Z,5.20
2023-02-14T14:49:18.432Z,5.38
2023-02-14T14:51:44.930Z,4.88
2023-02-14T14:54:11.376Z,5.80
2023-02-14T14:56:37.856Z,5.35
2023-02-14T14:59:04.287Z,5.72
2023-02-14T15:01:30.737Z,5.50
2023-02-14T15:03:57.253Z,5.57
2023-02-14T15:06:23.682Z,5.50
2023-02-14T15:08:50.118Z,5.60
2023-02-14T15:11:16.572Z,5.53
2023-02-14T15:13:43.013Z,5.60
2023-02-14T15:16:09.451Z,5.90
2023-02-14T15:18:35.900Z,5.88
2023-02-14T15:21:02.836Z,5.40
2023-02-14T15:23:29.492Z,5.60
2023-02-14T15:25:56.045Z,5.78
2023-02-14T15:28:22.490Z,5.93
2023-02-14T15:30:48.998Z,5.90
2023-02-14T15:33:15.543Z,5.70
2023-02-14T15:35:41.952Z,5.45
2023-02-14T15:38:08.395Z,5.28
2023-02-14T15:40:34.965Z,5.10
2023-02-14T15:43:01.441Z,5.60
2023-02-14T15:45:27.966Z,5.65
2023-02-14T15:47:54.475Z,5.70
2023-02-14T15:50:20.881Z,5.70
2023-02-14T15:52:47.264Z,5.80
2023-02-14T15:55:13.911Z,5.15
2023-02-14T15:57:40.423Z,5.18
2023-02-14T16:00:06.843Z,5.15
2023-02-14T16:02:38.567Z,5.07
2023-02-14T16:05:04.997Z,4.80
2023-02-14T16:07:31.446Z,5.03
2023-02-14T16:09:57.973Z,4.88
2023-02-14T16:12:24.609Z,4.63
2023-02-14T16:14:51.076Z,5.05
2023-02-14T16:17:17.633Z,4.95
2023-02-14T16:19:44.096Z,4.70
2023-02-14T16:22:10.539Z,4.80
2023-02-14T16:24:36.998Z,4.70
2023-02-14T16:27:03.383Z,4.82
2023-02-14T16:29:29.760Z,4.55
2023-02-14T16:32:14.705Z,4.68
2023-02-14T16:34:42.370Z,4.70
2023-02-14T16:37:08.863Z,4.75
2023-02-14T16:39:35.305Z,5.10
2023-02-14T16:42:01.726Z,5.25
2023-02-14T16:44:28.225Z,4.80
2023-02-14T16:46:54.605Z,4.65
2023-02-14T16:49:21.006Z,5.40
2023-02-14T16:51:47.441Z,5.28
2023-02-14T16:54:13.821Z,5.20
2023-02-14T16:56:40.203Z,5.32
2023-02-14T16:59:06.681Z,5.13
2023-02-14T17:01:33.144Z,5.20
2023-02-14T17:03:59.710Z,5.00
2023-02-14T17:06:26.246Z,4.90
2023-02-14T17:08:52.690Z,5.22
2023-02-14T17:11:19.123Z,5.40
2023-02-14T17:13:45.656Z,5.30
2023-02-14T17:16:12.149Z,5.70
2023-02-14T17:18:38.676Z,5.72
2023-02-14T17:21:05.170Z,5.57
2023-02-14T17:23:31.643Z,5.65
2023-02-14T17:25:58.090Z,5.28
2023-02-14T17:28:24.538Z,5.32
2023-02-14T17:30:51.066Z,5.10
2023-02-14T17:33:17.591Z,5.57
2023-02-14T17:35:44.088Z,5.10
2023-02-14T17:38:10.585Z,5.57
2023-02-14T17:40:36.966Z,5.20
2023-02-14T17:43:03.461Z,5.40
2023-02-14T17:45:29.919Z,5.47
2023-02-14T17:47:56.398Z,5.32
2023-02-14T17:50:22.892Z,5.72
2023-02-14T17:52:49.278Z,5.15
2023-02-14T17:55:15.696Z,5.00
2023-02-14T17:57:42.138Z,5.43
2023-02-14T18:00:11.306Z,5.20
2023-02-14T18:02:40.805Z,5.30
2023-02-14T18:05:07.397Z,5.28
2023-02-14T18:07:33.890Z,5.00
2023-02-14T18:10:00.419Z,4.93
2023-02-14T18:12:26.952Z,4.80
2023-02-14T18:14:53.392Z,5.07
2023-02-14T18:17:19.886Z,5.03
2023-02-14T18:19:46.495Z,4.82
2023-02-14T18:22:12.914Z,4.80
2023-02-14T18:24:39.305Z,4.50
2023-02-14T18:27:05.848Z,4.70
2023-02-14T18:29:32.343Z,4.95
2023-02-14T18:31:58.757Z,4.85
2023-02-14T18:34:25.222Z,5.05
2023-02-14T18:36:51.637Z,4.65
2023-02-14T18:39:18.072Z,4.85
2023-02-14T18:41:44.565Z,5.13
2023-02-14T18:44:11.034Z,4.88
2023-02-14T18:46:37.509Z,4.93
2023-02-14T18:49:04.027Z,5.50
2023-02-14T18:51:30.474Z,5.60
2023-02-14T18:53:56.951Z,4.95
2023-02-14T18:56:23.529Z,4.85
2023-02-14T18:58:49.975Z,4.85
2023-02-14T19:01:16.501Z,5.15
2023-02-14T19:03:43.080Z,5.40
2023-02-14T19:06:09.506Z,4.85
2023-02-14T19:08:35.998Z,4.70
2023-02-14T19:11:02.786Z,4.70
2023-02-14T19:13:29.332Z,4.57
2023-02-14T19:15:55.804Z,4.28
2023-02-14T19:18:24.188Z,4.90
2023-02-14T19:20:52.142Z,4.80
2023-02-14T19:23:18.619Z,5.05
2023-02-14T19:25:45.195Z,4.65
2023-02-14T19:28:11.682Z,4.72
2023-02-14T19:30:38.086Z,4.68
2023-02-14T19:33:04.635Z,4.68
2023-02-14T19:35:31.094Z,4.50
2023-02-14T19:37:57.582Z,4.95
2023-02-14T19:40:24.141Z,4.85
2023-02-14T19:42:50.561Z,4.50
2023-02-14T19:45:17.067Z,4.70
2023-02-14T19:47:47.333Z,4.88
2023-02-14T19:50:14.054Z,4.75
2023-02-14T19:52:40.514Z,4.72
2023-02-14T19:55:06.969Z,5.15
2023-02-14T19:57:33.460Z,5.13
2023-02-14T19:59:59.988Z,5.25
2023-02-14T20:02:26.587Z,5.32
2023-02-14T20:04:53.092Z,5.10
2023-02-14T20:07:19.542Z,5.13
2023-02-14T20:09:46.088Z,5.13
2023-02-14T20:12:12.550Z,5.20
2023-02-14T20:14:51.019Z,5.30
2023-02-14T20:17:18.318Z,5.60
2023-02-14T20:19:44.755Z,5.55
2023-02-14T20:22:11.171Z,5.97
2023-02-14T20:24:37.590Z,5.53
2023-02-14T20:27:04.084Z,5.30
2023-02-14T20:29:30.478Z,5.78
2023-02-14T20:31:56.926Z,5.50
2023-02-14T20:34:23.378Z,6.30
2023-02-14T20:36:49.777Z,5.38
2023-02-14T20:39:16.212Z,6.13
2023-02-14T20:41:42.623Z,5.97
2023-02-14T20:44:09.053Z,6.07
2023-02-14T20:46:35.564Z,6.15
2023-02-14T20:49:02.136Z,6.75
2023-02-14T20:51:28.533Z,6.70
2023-02-14T20:53:54.984Z,6.50
2023-02-14T20:56:21.421Z,6.57
2023-02-14T20:58:47.875Z,7.30
2023-02-14T21:01:14.365Z,6.82
2023-02-14T21:03:40.956Z,6.95
2023-02-14T21:06:07.395Z,7.07
2023-02-14T21:08:33.824Z,6.95
2023-02-14T21:11:00.520Z,7.50
2023-02-14T21:13:27.176Z,7.80
2023-02-14T21:15:53.617Z,7.60
2023-02-14T21:18:20.082Z,7.55
2023-02-14T21:20:46.514Z,7.43
2023-02-14T21:23:12.954Z,7.30
2023-02-14T21:25:39.505Z,7.57
2023-02-14T21:28:05.939Z,7.70
2023-02-14T21:30:32.358Z,7.63
2023-02-14T21:32:58.771Z,7.82
2023-02-14T21:35:25.228Z,7.70
2023-02-14T21:37:51.719Z,8.18
2023-02-14T21:40:18.177Z,8.30
2023-02-14T21:42:44.550Z,8.27
2023-02-14T21:45:10.979Z,8.52
2023-02-14T21:47:37.433Z,8.77
2023-02-14T21:50:03.813Z,9.60
2023-02-14T21:52:30.272Z,8.95
2023-02-14T21:54:56.748Z,8.55
2023-02-14T21:57:23.111Z,8.57
2023-02-14T21:59:49.584Z,8.63
2023-02-14T22:02:16.040Z,9.27
2023-02-14T22:04:42.411Z,8.88
2023-02-14T22:07:08.806Z,8.95
2023-02-14T22:09:35.290Z,10.55
2023-02-14T22:12:01.659Z,11.20
2023-02-14T22:14:28.119Z,10.25
2023-02-14T22:16:54.522Z,9.45
2023-02-14T22:19:20.908Z,9.65
2023-02-14T22:21:47.339Z,9.93
2023-02-14T22:24:13.741Z,9.80
2023-02-14T22:26:40.150Z,10.27
2023-02-14T22:29:06.589Z,10.70
2023-02-14T22:31:33.200Z,10.20
2023-02-14T22:33:59.680Z,9.93
2023-02-14T22:36:26.127Z,10.20
2023-02-14T22:38:52.581Z,10.38
2023-02-14T22:41:18.984Z,10.20
2023-02-14T22:43:45.439Z,10.15
2023-02-14T22:46:11.855Z,9.80
2023-02-14T22:48:38.327Z,10.43
2023-02-14T22:51:04.819Z,11.02
2023-02-14T22:53:31.192Z,10.40
2023-02-14T22:55:57.568Z,11.23
2023-02-14T22:58:24.007Z,11.00
2023-02-14T23:00:50.389Z,11.00
2023-02-14T23:03:16.798Z,11.52
2023-02-14T23:05:43.235Z,11.95
2023-02-14T23:08:09.615Z,11.88
2023-02-14T23:10:36.041Z,11.82
2023-02-14T23:13:02.477Z,12.65
2023-02-14T23:15:28.872Z,11.68
2023-02-14T23:17:55.273Z,12.43
2023-02-14T23:20:21.718Z,12.32
2023-02-14T23:22:48.097Z,12.40
2023-02-14T23:25:14.471Z,11.73
2023-02-14T23:27:40.902Z,12.93
2023-02-14T23:30:07.362Z,12.70
2023-02-14T23:32:33.759Z,13.38
2023-02-14T23:35:00.211Z,11.93
2023-02-14T23:37:26.611Z,12.70
2023-02-14T23:39:53.019Z,13.05
2023-02-14T23:42:19.449Z,13.05
2023-02-14T23:44:45.847Z,12.55
2023-02-14T23:47:12.217Z,12.27
2023-02-14T23:49:38.652Z,13.32
2023-02-14T23:52:05.047Z,13.43
2023-02-14T23:54:31.522Z,13.73
2023-02-14T23:56:58.027Z,12.95
2023-02-14T23:59:24.408Z,13.80
